WEATHER DATA

YESTERDAY
Time Temp. Dewp. Hum. Wind dir Wind speed Wind gust Bar. 1h Prec. 24h Prec.
00:10 20.2 11.2 56 55 0.3 0.8 1014.3 0.0000 0.0000
00:20 19.9 10.9 56 60 0.3 0.8 1014.3 0.0000 0.0000
00:30 19.7 11 57 55 0.3 0.8 1014.3 0.0000 0.0000
00:40 19.5 11 58 47 0.6 1.1 1014.3 0.0000 0.0000
00:50 19.2 10.7 58 45 0.6 1.4 1014.1 0.0000 0.0000
01:00 19 10.8 59 58 0.3 0.8 1014.2 0.0000 0.0000
01:10 18.8 10.6 59 55 0.3 0.8 1014.2 0.0000 0.0000
01:20 18.6 10.4 59 45 0.6 0.8 1014.3 0.0000 0.0000
01:31 18.5 10.6 60 47 0.6 1.1 1014.3 0.0000 0.0000
01:40 18.3 10.4 60 54 0.6 1.1 1014.2 0.0000 0.0000
01:50 18.2 10.3 60 45 0.6 0.8 1014.2 0.0000 0.0000
02:01 18.1 10.5 61 45 0.6 0.8 1014.2 0.0000 0.0000
02:11 18 10.4 61 48 0.3 0.8 1014 0.0000 0.0000
02:20 17.8 10.2 61 45 0.3 0.6 1014 0.0000 0.0000
02:31 17.7 10.3 62 45 0.3 0.6 1014 0.0000 0.0000
02:41 17.5 10.1 62 56 0.3 0.8 1013.8 0.0000 0.0000
02:51 17.3 10 62 90 0.3 0.8 1013.8 0.0000 0.0000
03:01 17.2 9.9 62 64 0.6 0.8 1013.7 0.0000 0.0000
03:11 17.1 9.8 62 90 0.3 0.8 1013.7 0.0000 0.0000
03:21 17 9.7 62 60 0.3 0.8 1013.6 0.0000 0.0000
03:31 16.9 9.8 63 51 0.3 0.8 1013.7 0.0000 0.0000
03:41 16.9 9.8 63 64 0.6 0.8 1013.6 0.0000 0.0000
03:52 16.8 9.7 63 59 0.6 0.8 1013.6 0.0000 0.0000
04:01 16.7 9.6 63 59 0.6 0.8 1013.6 0.0000 0.0000
04:11 16.7 9.6 63 59 0.3 0.8 1013.6 0.0000 0.0000
04:22 16.7 9.6 63 59 0.6 0.8 1013.5 0.0000 0.0000
04:32 16.6 9.5 63 90 0.3 0.8 1013.7 0.0000 0.0000
04:41 16.6 9.5 63 56 0.6 0.8 1013.5 0.0000 0.0000
04:52 16.6 9.5 63 55 0.6 0.8 1013.6 0.0000 0.0000
05:02 16.4 9.3 63 56 0.6 0.8 1013.5 0.0000 0.0000
05:07 16.4 9.3 63 62 0.6 0.8 1013.7 0.0000 0.0000
05:17 16.4 9.3 63 59 0.6 0.8 1013.5 0.0000 0.0000
05:27 16.4 9.3 63 56 0.6 0.8 1013.5 0.0000 0.0000
05:38 16.4 9.3 63 60 0.6 0.8 1013.5 0.0000 0.0000
05:47 16.3 9.3 63 60 0.6 0.8 1013.5 0.0000 0.0000
05:57 16.4 9.3 63 63 0.6 0.8 1013.3 0.0000 0.0000
06:08 16.3 9.3 63 65 0.6 0.8 1013.4 0.0000 0.0000
06:18 16.3 9.3 63 61 0.6 0.8 1013.4 0.0000 0.0000
06:27 16.4 9.6 64 59 0.3 0.8 1013.3 0.0000 0.0000
06:37 16.4 9.6 64 59 0.3 0.8 1013.3 0.0000 0.0000
06:48 16.6 10 65 60 0.3 1.1 1013.4 0.0000 0.0000
06:58 16.7 10.1 65 62 0.6 1.1 1013.4 0.0000 0.0000
07:08 17 10.1 64 90 0.3 0.8 1013.4 0.0000 0.0000
07:18 17.2 10.6 65 90 0.3 0.6 1013.3 0.0000 0.0000
07:28 17.4 10.8 65 90 0.3 0.6 1013.1 0.0000 0.0000
07:38 17.7 11 65 90 0.3 0.6 1013.2 0.0000 0.0000
07:48 17.9 11.2 65 90 0.3 0.6 1013.2 0.0000 0.0000
07:59 18 11.3 65 90 0.3 0.8 1013.2 0.0000 0.0000
08:08 18.1 11.4 65 90 0.3 0.6 1013.2 0.0000 0.0000
08:18 18.2 11.5 65 90 0.3 0.8 1013.1 0.0000 0.0000
08:29 18.3 11.4 64 90 0.3 0.8 1013 0.0000 0.0000
08:39 18.4 11.7 65 90 0.3 0.6 1013.1 0.0000 0.0000
08:48 18.6 11.9 65 90 0.3 0.6 1013 0.0000 0.0000
08:58 18.9 11.9 64 90 0.3 0.8 1013 0.0000 0.0000
09:09 19.3 11.6 61 90 0.3 0.6 1013 0.0000 0.0000
09:19 19.8 11.8 60 135 0.3 0.8 1013 0.0000 0.0000
09:29 20.3 12 59 135 0.3 1.1 1012.9 0.0000 0.0000
09:39 20.6 12.1 58 90 0.3 0.8 1012.8 0.0000 0.0000
09:49 21.2 12.1 56 0 0.6 1012.8 0.0000 0.0000
09:59 21.9 11.6 52 165 0.3 1.1 1012.9 0.0000 0.0000
10:09 22.3 12.3 53 168 0.3 0.8 1012.9 0.0000 0.0000
10:20 22.8 12.1 51 155 0.3 1.1 1012.8 0.0000 0.0000
10:29 23.1 12.7 52 185 0.3 1.4 1012.8 0.0000 0.0000
10:39 23.4 13 52 180 0.3 1.1 1012.7 0.0000 0.0000
10:50 23.7 12.1 48 158 0.3 1.1 1012.7 0.0000 0.0000
11:00 24.1 12.7 49 135 0.3 1.1 1012.6 0.0000 0.0000
11:09 24.4 12.7 48 135 0.3 1.1 1012.5 0.0000 0.0000
11:19 24.6 13.2 49 45 0.3 0.8 1012.5 0.0000 0.0000
11:30 24.9 13.5 49 270 0.3 0.8 1012.5 0.0000 0.0000
11:40 25.2 13.1 47 34 0.6 1.7 1012.4 0.0000 0.0000
11:50 25.5 12.7 45 30 0.3 1.1 1012.5 0.0000 0.0000
12:00 25.8 13 45 14 0.3 0.8 1012.4 0.0000 0.0000
12:10 26 12.8 44 333 0.6 1.1 1012.3 0.0000 0.0000
12:20 26.2 13 44 50 0.3 1.9 1012.3 0.0000 0.0000
12:30 26.6 13.4 44 15 0.3 1.1 1012 0.0000 0.0000
12:41 27.1 13.1 42 16 0.6 1.4 1012.1 0.0000 0.0000
12:50 27.3 12.9 41 14 0.6 1.7 1012 0.0000 0.0000
13:11 28 13.9 42 6 0.3 0.8 1011.8 0.0000 0.0000
13:21 28.2 13.3 40 45 0.3 1.1 1011.7 0.0000 0.0000
13:30 28.4 12.7 38 161 0.3 1.1 1011.6 0.0000 0.0000
13:40 28.5 12 36 155 0.3 0.8 1011.4 0.0000 0.0000
13:51 28.7 12.6 37 225 0.3 1.7 1011.2 0.0000 0.0000
14:01 28.9 11.9 35 175 0.6 1.7 1011.4 0.0000 0.0000
14:11 29 12 35 168 0.3 1.7 1011.2 0.0000 0.0000
14:21 29.3 11.8 34 161 0.3 1.1 1010.9 0.0000 0.0000
14:31 29.4 11.9 34 180 0.3 1.1 1010.9 0.0000 0.0000
14:41 29.5 11.1 32 209 0.3 0.8 1010.8 0.0000 0.0000
14:51 29.7 12.2 34 203 0.3 1.1 1010.8 0.0000 0.0000
15:02 29.9 12.4 34 203 0.3 1.7 1010.6 0.0000 0.0000
15:11 30.1 13 35 188 0.6 1.9 1010.5 0.0000 0.0000
15:20 30.2 12.2 33 210 0.3 1.4 1010.4 0.0000 0.0000
15:31 30.4 11.4 31 185 0.6 1.7 1010.4 0.0000 0.0000
15:41 30.4 12.8 34 331 0.6 1.4 1010.3 0.0000 0.0000
15:51 30.7 13.5 35 290 0.6 1.7 1010.2 0.0000 0.0000
16:01 30.8 12.7 33 315 0.3 1.1 1010.1 0.0000 0.0000
16:11 31 13.3 34 287 0.6 1.9 1010.1 0.0000 0.0000
16:21 31 12.4 32 315 0.3 1.1 1009.9 0.0000 0.0000
16:31 30.9 11.8 31 270 0.3 0.8 1010 0.0000 0.0000
16:42 31 12.9 33 8 0.6 1.9 1009.8 0.0000 0.0000
17:01 31.1 12.9 33 270 0.3 0.6 1009.7 0.0000 0.0000
17:12 31.3 12.6 32 45 0.3 0.6 1009.5 0.0000 0.0000
17:22 31.2 12.6 32 315 0.3 0.8 1009.5 0.0000 0.0000
17:32 31.3 13.6 34 30 0.3 0.8 1009.3 0.0000 0.0000
17:41 31.4 12.7 32 24 0.6 1.4 1009.3 0.0000 0.0000
17:52 31.3 13.1 33 29 0.6 1.4 1009.2 0.0000 0.0000
18:02 31.2 13 33 18 0.3 1.1 1009 0.0000 0.0000
18:12 31 11.9 31 34 0.6 1.9 1008.8 0.0000 0.0000
18:22 30.8 12.2 32 42 0.6 1.4 1008.9 0.0000 0.0000
18:32 30.7 12.1 32 0 0.3 0.8 1008.9 0.0000 0.0000
18:42 30.4 11.4 31 38 0.3 1.9 1008.9 0.0000 0.0000
18:52 30.2 11.2 31 33 0.3 1.1 1008.6 0.0000 0.0000
19:03 29.9 11.4 32 29 0.3 0.8 1008.6 0.0000 0.0000
19:12 29.7 10.8 31 41 0.6 1.4 1008.6 0.0000 0.0000
19:22 29.5 11.1 32 32 0.6 1.7 1008.6 0.0000 0.0000
19:32 29.3 11.4 33 34 0.3 1.1 1008.7 0.0000 0.0000
19:53 28.8 11.4 34 30 0.3 0.6 1008.8 0.0000 0.0000
20:02 28.5 11.6 35 45 0.3 0.6 1008.7 0.0000 0.0000
20:13 28.1 11.6 36 40 0.3 0.6 1008.8 0.0000 0.0000
20:33 27.5 11.9 38 45 0.3 0.8 1008.7 0.0000 0.0000
20:53 27 11.9 39 41 0.3 0.6 1008.9 0.0000 0.0000
21:03 26.7 11.6 39 51 0.3 0.6 1008.7 0.0000 0.0000
21:13 26.4 11.3 39 52 0.6 1.1 1008.6 0.0000 0.0000
21:24 26.1 11.5 40 55 0.3 0.6 1008.5 0.0000 0.0000
21:34 25.9 11.7 41 60 0.3 0.6 1008.6 0.0000 0.0000
21:43 25.6 11.7 42 59 0.3 0.6 1008.6 0.0000 0.0000
21:53 25.3 11.8 43 60 0.3 0.8 1008.7 0.0000 0.0000
22:14 24.7 11.6 44 57 0.3 0.8 1008.8 0.0000 0.0000
22:23 24.4 11.7 45 90 0.3 0.6 1008.9 0.0000 0.0000
22:34 24.1 11.8 46 45 0.3 0.6 1008.8 0.0000 0.0000
22:44 23.9 11.9 47 90 0.3 0.8 1008.8 0.0000 0.0000
22:54 23.6 12 48 90 0.3 0.6 1008.9 0.0000 0.0000
23:04 23.4 11.8 48 56 0.3 0.6 1009 0.0000 0.0000
23:14 23.2 11.9 49 60 0.3 0.6 1008.9 0.0000 0.0000
23:34 22.8 12.1 51 90 0.3 0.6 1008.8 0.0000 0.0000
23:55 22.4 11.8 51 59 0.6 0.8 1008.9 0.0000 0.0000

DAY STATISTIC

2018-07-20
TEMPERATURE
AVERAGE
23.3
HIGH
31.4
17:41
LOW
16.3
05:47
PRESSURE
AVERAGE
1011.7
HIGH
1014.3
00:10
LOW
1008.5
21:24
DEWPOINT
AVERAGE
11.4
HIGH
13.9
13:11
LOW
9.3
05:02
HUMIDITY
AVERAGE
49
HIGH
65
06:48
LOW
31
15:31
WIND SPEED
AVERAGE
0.4
HIGH
0.6
00:40
WIND GUST
AVERAGE
1.0
HIGH
1.9
12:20
WIND DIRECTION
PREVAILING
NE
53.3%
N
5.9
NE
53.3
E
15.6
SE
4.4
S
10.4
SW
2.2
W
3.7
NW
3.7
PRECIPITATION
RAIN HOUR
0.0
RAIN DAY
0.0
TEMPERATURE (°C)
LOW
16.3
HIGH
31.4
AVERAGE
23.3
PRESSURE (hpa)
LOW
1008.5
HIGH
1014.3
AVERAGE
1011.7
DEVICE